Agios Panteleimon — SX7669 — position and weather

sailwx.info

Track history (hours):
 
Tides and Currents Weather Stations Pressure Air Temp Water Temp Dewpoint Dewpoint Depression Visibility Wind Speed Wind Dir Waves Ship Positions

Agios Panteleimon

Last reported at 2018-Jun-25 15:30 UTC. Time now 2018-Jun-25 15:44 UTC.
Position N 40°51' E 024°30'.

Length 58 m; draft 2.3 m.

Type: Ship. MMSI: 237033700.

Date/timePositionNaut miles runAvg speedWind from/ knotsBaromVisibWave heightAir tempDewpointWater temp
2018-Jun-25 15:30N 40°51' E 024°30'510.1
2018-Jun-25 15:00N 40°55' E 024°25'2 3.0
2018-Jun-25 14:30N 40°56' E 024°25'3 6.1
2018-Jun-25 14:00N 40°53' E 024°27'510.7
2018-Jun-25 13:30N 40°49' E 024°31'4 8.7
2018-Jun-25 13:00N 40°46' E 024°35'0 0.0
2018-Jun-25 12:30N 40°46' E 024°35'4 8.1
2018-Jun-25 12:00N 40°49' E 024°32'5 9.4
2018-Jun-25 11:30N 40°52' E 024°28'4 8.3
2018-Jun-25 11:00N 40°56' E 024°25'0 0.0
2018-Jun-25 10:30N 40°56' E 024°25'3 5.1
2018-Jun-25 10:00N 40°54' E 024°26'510.8
2018-Jun-25 09:30N 40°50' E 024°31'5 9.9
2018-Jun-25 09:00N 40°46' E 024°35'0 0.0
2018-Jun-25 08:30N 40°46' E 024°35'0 0.0
2018-Jun-25 08:00N 40°46' E 024°35'2 3.5
2018-Jun-25 07:30N 40°47' E 024°33'5 9.3
2018-Jun-25 07:00N 40°50' E 024°29'5 9.9
2018-Jun-25 06:30N 40°54' E 024°25'2 3.3
2018-Jun-25 06:00N 40°56' E 024°25'1 1.5
2018-Jun-25 05:30N 40°55' E 024°24'510.1
2018-Jun-25 05:00N 40°51' E 024°28'510.6
2018-Jun-25 04:30N 40°47' E 024°33'2 4.3
2018-Jun-25 04:00N 40°46' E 024°35'0 0.0
2018-Jun-24 17:19N 40°46' E 024°35'3 9.9
2018-Jun-24 17:00N 40°48' E 024°32'510.1
2018-Jun-24 16:30N 40°52' E 024°28'4 8.5
2018-Jun-24 16:00N 40°56' E 024°25'1 1.2
2018-Jun-24 15:30N 40°55' E 024°25'510.4
2018-Jun-24 15:00N 40°51' E 024°29'510.3
2018-Jun-24 14:30N 40°47' E 024°33'2 4.2
2018-Jun-24 14:00N 40°46' E 024°35'2 3.0
2018-Jun-24 13:30N 40°47' E 024°34'5 9.6
2018-Jun-24 13:00N 40°51' E 024°30'5 9.8
2018-Jun-24 12:30N 40°54' E 024°26'2 3.5
2018-Jun-24 12:00N 40°56' E 024°25'3 6.1
2018-Jun-24 11:30N 40°53' E 024°27'510.3
2018-Jun-24 11:00N 40°49' E 024°31'5 9.4
2018-Jun-24 10:31N 40°46' E 024°35'1 2.7
2018-Jun-24 10:00N 40°47' E 024°34'5 9.8
2018-Jun-24 09:30N 40°51' E 024°30'510.1
2018-Jun-24 09:00N 40°55' E 024°26'2 3.2
2018-Jun-24 08:30N 40°56' E 024°25'3 5.9
2018-Jun-24 08:00N 40°53' E 024°26'510.3
2018-Jun-24 07:30N 40°49' E 024°30'5 9.8
2018-Jun-24 07:00N 40°46' E 024°35'0 0.0
2018-Jun-24 06:30N 40°46' E 024°35'0 0.0
2018-Jun-23 16:19N 40°46' E 024°35'2 5.0
2018-Jun-23 15:59N 40°47' E 024°34'510.1
2018-Jun-23 15:30N 40°51' E 024°30'5 9.9
2018-Jun-23 15:00N 40°55' E 024°25'1 2.9
2018-Jun-23 14:30N 40°56' E 024°25'3 6.8
2018-Jun-23 14:01N 40°53' E 024°27'510.5
2018-Jun-23 13:30N 40°49' E 024°31'4 8.3
2018-Jun-23 13:00N 40°46' E 024°35'0 0.0
2018-Jun-23 12:31N 40°46' E 024°35'4 8.0
2018-Jun-23 12:00N 40°49' E 024°31'5 9.7
2018-Jun-23 11:30N 40°53' E 024°27'4 8.1
2018-Jun-23 11:01N 40°56' E 024°25'0 0.0
2018-Jun-23 10:31N 40°56' E 024°25'3 5.8
2018-Jun-23 10:00N 40°53' E 024°26'510.5
2018-Jun-23 09:31N 40°49' E 024°31'5 9.0
2018-Jun-23 08:59N 40°46' E 024°35'0 0.0
2018-Jun-23 08:30N 40°46' E 024°35'0 0.0
2018-Jun-23 08:00N 40°46' E 024°35'1 2.6
2018-Jun-23 07:29N 40°47' E 024°34'510.0
2018-Jun-23 07:00N 40°51' E 024°30'510.2
2018-Jun-23 06:31N 40°54' E 024°26'2 3.4
2018-Jun-23 06:01N 40°56' E 024°25'1 1.3
2018-Jun-23 05:30N 40°55' E 024°24'510.3
2018-Jun-23 05:00N 40°51' E 024°28'510.4
2018-Jun-23 04:30N 40°47' E 024°33'2 4.4
2018-Jun-23 04:01N 40°46' E 024°35'0 0.0
2018-Jun-22 16:11N 40°46' E 024°35'1 7.2
2018-Jun-22 16:00N 40°47' E 024°34'510.3
2018-Jun-22 15:30N 40°51' E 024°30'510.3
2018-Jun-22 15:00N 40°55' E 024°25'1 2.7
2018-Jun-22 14:30N 40°56' E 024°25'3 6.7
2018-Jun-22 14:00N 40°53' E 024°27'510.3
2018-Jun-22 13:30N 40°49' E 024°31'4 8.8
2018-Jun-22 13:00N 40°46' E 024°35'0 0.0
2018-Jun-22 12:30N 40°46' E 024°35'4 7.7
2018-Jun-22 12:00N 40°49' E 024°32'510.0
2018-Jun-22 11:30N 40°53' E 024°28'4 8.0
2018-Jun-22 11:00N 40°56' E 024°25'0 0.0
2018-Jun-22 10:30N 40°56' E 024°25'3 6.1
2018-Jun-22 10:00N 40°53' E 024°27'510.5
2018-Jun-22 09:30N 40°49' E 024°31'5 9.2
2018-Jun-22 09:00N 40°46' E 024°35'0 0.0
2018-Jun-22 08:30N 40°46' E 024°35'0 0.0
2018-Jun-22 08:00N 40°46' E 024°35'1 2.9
2018-Jun-22 07:30N 40°47' E 024°34'510.0
2018-Jun-22 07:00N 40°51' E 024°30'510.1
2018-Jun-22 06:30N 40°55' E 024°25'2 3.0
2018-Jun-22 06:00N 40°56' E 024°25'1 1.9
2018-Jun-22 05:30N 40°55' E 024°25'510.2
2018-Jun-22 05:00N 40°51' E 024°29'510.3
2018-Jun-22 04:30N 40°47' E 024°33'2 3.8
2018-Jun-22 04:00N 40°46' E 024°35'0 0.0
2018-Jun-21 16:05N 40°46' E 024°35'1 7.5
2018-Jun-21 16:00N 40°46' E 024°34'510.6
2018-Jun-21 15:30N 40°50' E 024°30'510.6
2018-Jun-21 15:00N 40°54' E 024°26'2 3.5
2018-Jun-21 14:30N 40°56' E 024°25'3 6.8
2018-Jun-21 14:00N 40°53' E 024°27'510.1
2018-Jun-21 13:30N 40°49' E 024°31'4 8.7
2018-Jun-21 13:00N 40°46' E 024°35'0 0.0
2018-Jun-21 12:30N 40°46' E 024°35'4 7.5
2018-Jun-21 12:00N 40°49' E 024°32'5 9.8
2018-Jun-21 11:30N 40°53' E 024°28'4 8.5
2018-Jun-21 11:00N 40°56' E 024°25'0 0.0
2018-Jun-21 10:30N 40°56' E 024°25'3 6.2
2018-Jun-21 10:00N 40°53' E 024°27'510.3
2018-Jun-21 09:30N 40°49' E 024°31'5 9.2
2018-Jun-21 09:00N 40°46' E 024°35'0 0.0
2018-Jun-21 08:30N 40°46' E 024°35'0 0.0
2018-Jun-21 08:00N 40°46' E 024°35'1 2.3
2018-Jun-21 07:30N 40°47' E 024°34'510.1
2018-Jun-21 07:00N 40°51' E 024°30'510.3
2018-Jun-21 06:30N 40°54' E 024°26'2 3.2
2018-Jun-21 06:00N 40°56' E 024°25'1 1.7
2018-Jun-21 05:30N 40°55' E 024°25'510.1
2018-Jun-21 05:00N 40°51' E 024°29'510.3
2018-Jun-21 04:30N 40°47' E 024°33'2 3.9
2018-Jun-21 03:59N 40°46' E 024°35'0 0.0
2018-Jun-20 16:05N 40°46' E 024°35'110.1
2018-Jun-20 16:01N 40°47' E 024°34'510.0
2018-Jun-20 15:31N 40°50' E 024°30'510.1
2018-Jun-20 15:00N 40°54' E 024°26'2 3.5
2018-Jun-20 14:31N 40°56' E 024°25'3 5.8
2018-Jun-20 14:01N 40°53' E 024°26'510.4
2018-Jun-20 13:31N 40°49' E 024°31'5 9.6
2018-Jun-20 13:00N 40°46' E 024°35'0 0.0
2018-Jun-20 12:31N 40°46' E 024°35'4 7.3
2018-Jun-20 12:01N 40°49' E 024°32'510.0
2018-Jun-20 11:31N 40°53' E 024°28'4 8.3
2018-Jun-20 11:01N 40°56' E 024°25'0 0.0
2018-Jun-20 10:30N 40°56' E 024°25'3 6.2
2018-Jun-20 10:00N 40°53' E 024°27'510.3
2018-Jun-20 09:31N 40°49' E 024°31'5 9.4
2018-Jun-20 09:00N 40°46' E 024°35'0 0.0
2018-Jun-20 08:31N 40°46' E 024°35'0 0.0
2018-Jun-20 08:01N 40°46' E 024°35'1 2.0
2018-Jun-20 07:31N 40°46' E 024°34'510.2
2018-Jun-20 07:01N 40°50' E 024°30'510.4
2018-Jun-20 06:31N 40°55' E 024°26'2 3.2
2018-Jun-20 06:00N 40°56' E 024°25'1 2.0
2018-Jun-20 05:30N 40°55' E 024°25'510.0
2018-Jun-20 05:00N 40°51' E 024°29'510.2
2018-Jun-20 04:31N 40°47' E 024°33'2 3.8
2018-Jun-20 04:00N 40°46' E 024°35'0 0.0
2018-Jun-19 16:06N 40°46' E 024°35'1 8.2
2018-Jun-19 16:01N 40°46' E 024°34'510.4
2018-Jun-19 15:30N 40°50' E 024°30'510.5
2018-Jun-19 15:00N 40°54' E 024°26'2 3.3
2018-Jun-19 14:31N 40°56' E 024°25'3 6.3
2018-Jun-19 14:00N 40°53' E 024°27'510.1
2018-Jun-19 13:31N 40°49' E 024°31'5 9.5
2018-Jun-19 13:01N 40°46' E 024°35'0 0.0
2018-Jun-19 12:31N 40°46' E 024°35'3 6.9
2018-Jun-19 12:01N 40°48' E 024°32'510.4
2018-Jun-19 11:31N 40°53' E 024°28'4 8.4
2018-Jun-19 11:01N 40°56' E 024°25'0 0.0
2018-Jun-19 10:31N 40°56' E 024°25'3 6.3
2018-Jun-19 10:01N 40°53' E 024°26'510.2
2018-Jun-19 09:31N 40°49' E 024°31'5 9.4
2018-Jun-19 09:01N 40°46' E 024°35'0 0.0
2018-Jun-19 08:31N 40°46' E 024°35'0 0.0
2018-Jun-19 08:00N 40°46' E 024°35'1 1.7
2018-Jun-19 07:30N 40°46' E 024°34'510.3
2018-Jun-19 07:01N 40°50' E 024°30'510.5
2018-Jun-19 06:30N 40°55' E 024°26'2 3.2
2018-Jun-19 06:00N 40°56' E 024°25'1 2.5
2018-Jun-19 05:30N 40°55' E 024°25'5 9.8
2018-Jun-19 05:00N 40°51' E 024°29'510.0
2018-Jun-19 04:30N 40°47' E 024°33'2 3.6
2018-Jun-19 04:01N 40°46' E 024°35'0 0.0
2018-Jun-18 16:07N 40°46' E 024°35'1 9.7
2018-Jun-18 16:00N 40°47' E 024°34'510.0
2018-Jun-18 15:30N 40°50' E 024°30'510.2
2018-Jun-18 15:00N 40°54' E 024°25'2 3.4
2018-Jun-18 14:30N 40°56' E 024°25'3 6.2
2018-Jun-18 14:00N 40°53' E 024°27'510.3
2018-Jun-18 13:30N 40°49' E 024°31'5 9.3
2018-Jun-18 13:00N 40°46' E 024°35'0 0.0
2018-Jun-18 12:30N 40°46' E 024°35'4 7.5
2018-Jun-18 12:00N 40°49' E 024°32'510.0
2018-Jun-18 11:30N 40°53' E 024°28'4 8.2
2018-Jun-18 11:00N 40°56' E 024°25'0 0.0
2018-Jun-18 10:30N 40°56' E 024°25'3 6.0
2018-Jun-18 10:00N 40°53' E 024°27'510.4
2018-Jun-18 09:30N 40°49' E 024°31'5 9.3
2018-Jun-18 09:00N 40°46' E 024°35'0 0.0
2018-Jun-18 08:30N 40°46' E 024°35'0 0.0
2018-Jun-18 08:00N 40°46' E 024°35'1 2.6
2018-Jun-18 07:30N 40°47' E 024°34'5 9.9
2018-Jun-18 07:00N 40°50' E 024°30'510.2
2018-Jun-18 06:30N 40°54' E 024°25'2 3.2
2018-Jun-18 06:00N 40°56' E 024°25'1 1.5
2018-Jun-18 05:30N 40°55' E 024°24'510.0
2018-Jun-18 05:00N 40°51' E 024°29'510.4
2018-Jun-18 04:30N 40°47' E 024°33'2 4.3
2018-Jun-18 04:00N 40°46' E 024°35'1 0.1
2018-Jun-17 17:17N 40°46' E 024°34'310.2
2018-Jun-17 17:00N 40°48' E 024°32'510.2
2018-Jun-17 16:30N 40°52' E 024°28'4 8.6
2018-Jun-17 16:00N 40°56' E 024°25'1 1.9
2018-Jun-17 15:30N 40°55' E 024°25'510.1
2018-Jun-17 15:00N 40°51' E 024°29'510.4
2018-Jun-17 14:30N 40°47' E 024°33'2 3.8
2018-Jun-17 14:00N 40°46' E 024°35'1 2.2
2018-Jun-17 13:30N 40°47' E 024°34'510.0
2018-Jun-17 13:00N 40°51' E 024°30'510.3
2018-Jun-17 12:30N 40°54' E 024°26'2 3.3
2018-Jun-17 12:00N 40°56' E 024°25'3 5.9
2018-Jun-17 11:30N 40°53' E 024°26'510.3
2018-Jun-17 11:00N 40°49' E 024°31'5 9.6
2018-Jun-17 10:30N 40°46' E 024°35'1 2.8
2018-Jun-17 10:00N 40°47' E 024°34'5 9.8
2018-Jun-17 09:30N 40°51' E 024°30'510.2
2018-Jun-17 09:00N 40°55' E 024°26'2 3.1
2018-Jun-17 08:30N 40°56' E 024°25'3 6.9
2018-Jun-17 08:00N 40°53' E 024°27'510.2
2018-Jun-17 07:30N 40°49' E 024°31'4 8.7
2018-Jun-17 07:00N 40°46' E 024°35'0 0.0
2018-Jun-16 16:08N 40°46' E 024°35'1 4.5
2018-Jun-16 16:00N 40°46' E 024°34'510.6
2018-Jun-16 15:30N 40°50' E 024°30'510.7
2018-Jun-16 15:00N 40°54' E 024°26'2 3.3
2018-Jun-16 14:30N 40°56' E 024°25'3 6.6
2018-Jun-16 14:00N 40°53' E 024°27'510.1
2018-Jun-16 13:30N 40°49' E 024°31'5 9.0
2018-Jun-16 13:00N 40°46' E 024°35'0 0.0
2018-Jun-16 12:30N 40°46' E 024°35'4 7.5
2018-Jun-16 12:00N 40°49' E 024°32'510.1
2018-Jun-16 11:30N 40°53' E 024°28'4 8.2
2018-Jun-16 11:00N 40°56' E 024°25'0 0.0
2018-Jun-16 10:30N 40°56' E 024°25'3 6.4
2018-Jun-16 10:00N 40°53' E 024°27'510.1
2018-Jun-16 09:30N 40°49' E 024°31'5 9.3
2018-Jun-16 09:00N 40°46' E 024°35'0 0.0
2018-Jun-16 08:30N 40°46' E 024°35'0 0.0
2018-Jun-16 08:00N 40°46' E 024°35'1 2.4
2018-Jun-16 07:30N 40°47' E 024°34'510.0
2018-Jun-16 07:00N 40°51' E 024°30'510.4
2018-Jun-16 06:30N 40°55' E 024°25'2 3.1
2018-Jun-16 06:00N 40°56' E 024°25'1 1.3
2018-Jun-16 05:30N 40°55' E 024°24'510.1
2018-Jun-16 05:00N 40°51' E 024°28'510.6
2018-Jun-16 04:30N 40°47' E 024°33'2 4.4
2018-Jun-16 04:00N 40°46' E 024°35'0 0.0
2018-Jun-15 16:07N 40°46' E 024°35'1 9.7
2018-Jun-15 16:01N 40°47' E 024°34'5 9.9
2018-Jun-15 15:31N 40°51' E 024°30'  
Track history (hours):
 
Tides and Currents Weather Stations Pressure Air Temp Water Temp Dewpoint Dewpoint Depression Visibility Wind Speed Wind Dir Waves Ship Positions

Agios Panteleimon

Last reported at 2018-Jun-25 15:30 UTC. Time now 2018-Jun-25 15:44 UTC.
Position N 40°51' E 024°30'.

Length 58 m; draft 2.3 m.

Type: Ship. MMSI: 237033700.

Date/timePositionNaut miles runAvg speedWind from/ knotsBaromVisibWave heightAir tempDewpointWater temp
2018-Jun-25 15:30N 40°51' E 024°30'510.1
2018-Jun-25 15:00N 40°55' E 024°25'2 3.0
2018-Jun-25 14:30N 40°56' E 024°25'3 6.1
2018-Jun-25 14:00N 40°53' E 024°27'510.7
2018-Jun-25 13:30N 40°49' E 024°31'4 8.7
2018-Jun-25 13:00N 40°46' E 024°35'0 0.0
2018-Jun-25 12:30N 40°46' E 024°35'4 8.1
2018-Jun-25 12:00N 40°49' E 024°32'5 9.4
2018-Jun-25 11:30N 40°52' E 024°28'4 8.3
2018-Jun-25 11:00N 40°56' E 024°25'0 0.0
2018-Jun-25 10:30N 40°56' E 024°25'3 5.1
2018-Jun-25 10:00N 40°54' E 024°26'510.8
2018-Jun-25 09:30N 40°50' E 024°31'5 9.9
2018-Jun-25 09:00N 40°46' E 024°35'0 0.0
2018-Jun-25 08:30N 40°46' E 024°35'0 0.0
2018-Jun-25 08:00N 40°46' E 024°35'2 3.5
2018-Jun-25 07:30N 40°47' E 024°33'5 9.3
2018-Jun-25 07:00N 40°50' E 024°29'5 9.9
2018-Jun-25 06:30N 40°54' E 024°25'2 3.3
2018-Jun-25 06:00N 40°56' E 024°25'1 1.5
2018-Jun-25 05:30N 40°55' E 024°24'510.1
2018-Jun-25 05:00N 40°51' E 024°28'510.6
2018-Jun-25 04:30N 40°47' E 024°33'2 4.3
2018-Jun-25 04:00N 40°46' E 024°35'0 0.0
2018-Jun-24 17:19N 40°46' E 024°35'3 9.9
2018-Jun-24 17:00N 40°48' E 024°32'510.1
2018-Jun-24 16:30N 40°52' E 024°28'4 8.5
2018-Jun-24 16:00N 40°56' E 024°25'1 1.2
2018-Jun-24 15:30N 40°55' E 024°25'510.4
2018-Jun-24 15:00N 40°51' E 024°29'510.3
2018-Jun-24 14:30N 40°47' E 024°33'2 4.2
2018-Jun-24 14:00N 40°46' E 024°35'2 3.0
2018-Jun-24 13:30N 40°47' E 024°34'5 9.6
2018-Jun-24 13:00N 40°51' E 024°30'5 9.8
2018-Jun-24 12:30N 40°54' E 024°26'2 3.5
2018-Jun-24 12:00N 40°56' E 024°25'3 6.1
2018-Jun-24 11:30N 40°53' E 024°27'510.3
2018-Jun-24 11:00N 40°49' E 024°31'5 9.4
2018-Jun-24 10:31N 40°46' E 024°35'1 2.7
2018-Jun-24 10:00N 40°47' E 024°34'5 9.8
2018-Jun-24 09:30N 40°51' E 024°30'510.1
2018-Jun-24 09:00N 40°55' E 024°26'2 3.2
2018-Jun-24 08:30N 40°56' E 024°25'3 5.9
2018-Jun-24 08:00N 40°53' E 024°26'510.3
2018-Jun-24 07:30N 40°49' E 024°30'5 9.8
2018-Jun-24 07:00N 40°46' E 024°35'0 0.0
2018-Jun-24 06:30N 40°46' E 024°35'0 0.0
2018-Jun-23 16:19N 40°46' E 024°35'2 5.0
2018-Jun-23 15:59N 40°47' E 024°34'510.1
2018-Jun-23 15:30N 40°51' E 024°30'5 9.9
2018-Jun-23 15:00N 40°55' E 024°25'1 2.9
2018-Jun-23 14:30N 40°56' E 024°25'3 6.8
2018-Jun-23 14:01N 40°53' E 024°27'510.5
2018-Jun-23 13:30N 40°49' E 024°31'4 8.3
2018-Jun-23 13:00N 40°46' E 024°35'0 0.0
2018-Jun-23 12:31N 40°46' E 024°35'4 8.0
2018-Jun-23 12:00N 40°49' E 024°31'5 9.7
2018-Jun-23 11:30N 40°53' E 024°27'4 8.1
2018-Jun-23 11:01N 40°56' E 024°25'0 0.0
2018-Jun-23 10:31N 40°56' E 024°25'3 5.8
2018-Jun-23 10:00N 40°53' E 024°26'510.5
2018-Jun-23 09:31N 40°49' E 024°31'5 9.0
2018-Jun-23 08:59N 40°46' E 024°35'0 0.0
2018-Jun-23 08:30N 40°46' E 024°35'0 0.0
2018-Jun-23 08:00N 40°46' E 024°35'1 2.6
2018-Jun-23 07:29N 40°47' E 024°34'510.0
2018-Jun-23 07:00N 40°51' E 024°30'510.2
2018-Jun-23 06:31N 40°54' E 024°26'2 3.4
2018-Jun-23 06:01N 40°56' E 024°25'1 1.3
2018-Jun-23 05:30N 40°55' E 024°24'510.3
2018-Jun-23 05:00N 40°51' E 024°28'510.4
2018-Jun-23 04:30N 40°47' E 024°33'2 4.4
2018-Jun-23 04:01N 40°46' E 024°35'0 0.0
2018-Jun-22 16:11N 40°46' E 024°35'1 7.2
2018-Jun-22 16:00N 40°47' E 024°34'510.3
2018-Jun-22 15:30N 40°51' E 024°30'510.3
2018-Jun-22 15:00N 40°55' E 024°25'1 2.7
2018-Jun-22 14:30N 40°56' E 024°25'3 6.7
2018-Jun-22 14:00N 40°53' E 024°27'510.3
2018-Jun-22 13:30N 40°49' E 024°31'4 8.8
2018-Jun-22 13:00N 40°46' E 024°35'0 0.0
2018-Jun-22 12:30N 40°46' E 024°35'4 7.7
2018-Jun-22 12:00N 40°49' E 024°32'510.0
2018-Jun-22 11:30N 40°53' E 024°28'4 8.0
2018-Jun-22 11:00N 40°56' E 024°25'0 0.0
2018-Jun-22 10:30N 40°56' E 024°25'3 6.1
2018-Jun-22 10:00N 40°53' E 024°27'510.5
2018-Jun-22 09:30N 40°49' E 024°31'5 9.2
2018-Jun-22 09:00N 40°46' E 024°35'0 0.0
2018-Jun-22 08:30N 40°46' E 024°35'0 0.0
2018-Jun-22 08:00N 40°46' E 024°35'1 2.9
2018-Jun-22 07:30N 40°47' E 024°34'510.0
2018-Jun-22 07:00N 40°51' E 024°30'510.1
2018-Jun-22 06:30N 40°55' E 024°25'2 3.0
2018-Jun-22 06:00N 40°56' E 024°25'1 1.9
2018-Jun-22 05:30N 40°55' E 024°25'510.2
2018-Jun-22 05:00N 40°51' E 024°29'510.3
2018-Jun-22 04:30N 40°47' E 024°33'2 3.8
2018-Jun-22 04:00N 40°46' E 024°35'0 0.0
2018-Jun-21 16:05N 40°46' E 024°35'1 7.5
2018-Jun-21 16:00N 40°46' E 024°34'510.6
2018-Jun-21 15:30N 40°50' E 024°30'510.6
2018-Jun-21 15:00N 40°54' E 024°26'2 3.5
2018-Jun-21 14:30N 40°56' E 024°25'3 6.8
2018-Jun-21 14:00N 40°53' E 024°27'510.1
2018-Jun-21 13:30N 40°49' E 024°31'4 8.7
2018-Jun-21 13:00N 40°46' E 024°35'0 0.0
2018-Jun-21 12:30N 40°46' E 024°35'4 7.5
2018-Jun-21 12:00N 40°49' E 024°32'5 9.8
2018-Jun-21 11:30N 40°53' E 024°28'4 8.5
2018-Jun-21 11:00N 40°56' E 024°25'0 0.0
2018-Jun-21 10:30N 40°56' E 024°25'3 6.2
2018-Jun-21 10:00N 40°53' E 024°27'510.3
2018-Jun-21 09:30N 40°49' E 024°31'5 9.2
2018-Jun-21 09:00N 40°46' E 024°35'0 0.0
2018-Jun-21 08:30N 40°46' E 024°35'0 0.0
2018-Jun-21 08:00N 40°46' E 024°35'1 2.3
2018-Jun-21 07:30N 40°47' E 024°34'510.1
2018-Jun-21 07:00N 40°51' E 024°30'510.3
2018-Jun-21 06:30N 40°54' E 024°26'2 3.2
2018-Jun-21 06:00N 40°56' E 024°25'1 1.7
2018-Jun-21 05:30N 40°55' E 024°25'510.1
2018-Jun-21 05:00N 40°51' E 024°29'510.3
2018-Jun-21 04:30N 40°47' E 024°33'2 3.9
2018-Jun-21 03:59N 40°46' E 024°35'0 0.0
2018-Jun-20 16:05N 40°46' E 024°35'110.1
2018-Jun-20 16:01N 40°47' E 024°34'510.0
2018-Jun-20 15:31N 40°50' E 024°30'510.1
2018-Jun-20 15:00N 40°54' E 024°26'2 3.5
2018-Jun-20 14:31N 40°56' E 024°25'3 5.8
2018-Jun-20 14:01N 40°53' E 024°26'510.4
2018-Jun-20 13:31N 40°49' E 024°31'5 9.6
2018-Jun-20 13:00N 40°46' E 024°35'0 0.0
2018-Jun-20 12:31N 40°46' E 024°35'4 7.3
2018-Jun-20 12:01N 40°49' E 024°32'510.0
2018-Jun-20 11:31N 40°53' E 024°28'4 8.3
2018-Jun-20 11:01N 40°56' E 024°25'0 0.0
2018-Jun-20 10:30N 40°56' E 024°25'3 6.2
2018-Jun-20 10:00N 40°53' E 024°27'510.3
2018-Jun-20 09:31N 40°49' E 024°31'5 9.4
2018-Jun-20 09:00N 40°46' E 024°35'0 0.0
2018-Jun-20 08:31N 40°46' E 024°35'0 0.0
2018-Jun-20 08:01N 40°46' E 024°35'1 2.0
2018-Jun-20 07:31N 40°46' E 024°34'510.2
2018-Jun-20 07:01N 40°50' E 024°30'510.4
2018-Jun-20 06:31N 40°55' E 024°26'2 3.2
2018-Jun-20 06:00N 40°56' E 024°25'1 2.0
2018-Jun-20 05:30N 40°55' E 024°25'510.0
2018-Jun-20 05:00N 40°51' E 024°29'510.2
2018-Jun-20 04:31N 40°47' E 024°33'2 3.8
2018-Jun-20 04:00N 40°46' E 024°35'0 0.0
2018-Jun-19 16:06N 40°46' E 024°35'1 8.2
2018-Jun-19 16:01N 40°46' E 024°34'510.4
2018-Jun-19 15:30N 40°50' E 024°30'510.5
2018-Jun-19 15:00N 40°54' E 024°26'2 3.3
2018-Jun-19 14:31N 40°56' E 024°25'3 6.3
2018-Jun-19 14:00N 40°53' E 024°27'510.1
2018-Jun-19 13:31N 40°49' E 024°31'5 9.5
2018-Jun-19 13:01N 40°46' E 024°35'0 0.0
2018-Jun-19 12:31N 40°46' E 024°35'3 6.9
2018-Jun-19 12:01N 40°48' E 024°32'510.4
2018-Jun-19 11:31N 40°53' E 024°28'4 8.4
2018-Jun-19 11:01N 40°56' E 024°25'0 0.0
2018-Jun-19 10:31N 40°56' E 024°25'3 6.3
2018-Jun-19 10:01N 40°53' E 024°26'510.2
2018-Jun-19 09:31N 40°49' E 024°31'5 9.4
2018-Jun-19 09:01N 40°46' E 024°35'0 0.0
2018-Jun-19 08:31N 40°46' E 024°35'0 0.0
2018-Jun-19 08:00N 40°46' E 024°35'1 1.7
2018-Jun-19 07:30N 40°46' E 024°34'510.3
2018-Jun-19 07:01N 40°50' E 024°30'510.5
2018-Jun-19 06:30N 40°55' E 024°26'2 3.2
2018-Jun-19 06:00N 40°56' E 024°25'1 2.5
2018-Jun-19 05:30N 40°55' E 024°25'5 9.8
2018-Jun-19 05:00N 40°51' E 024°29'510.0
2018-Jun-19 04:30N 40°47' E 024°33'2 3.6
2018-Jun-19 04:01N 40°46' E 024°35'0 0.0
2018-Jun-18 16:07N 40°46' E 024°35'1 9.7
2018-Jun-18 16:00N 40°47' E 024°34'510.0
2018-Jun-18 15:30N 40°50' E 024°30'510.2
2018-Jun-18 15:00N 40°54' E 024°25'2 3.4
2018-Jun-18 14:30N 40°56' E 024°25'3 6.2
2018-Jun-18 14:00N 40°53' E 024°27'510.3
2018-Jun-18 13:30N 40°49' E 024°31'5 9.3
2018-Jun-18 13:00N 40°46' E 024°35'0 0.0
2018-Jun-18 12:30N 40°46' E 024°35'4 7.5
2018-Jun-18 12:00N 40°49' E 024°32'510.0
2018-Jun-18 11:30N 40°53' E 024°28'4 8.2
2018-Jun-18 11:00N 40°56' E 024°25'0 0.0
2018-Jun-18 10:30N 40°56' E 024°25'3 6.0
2018-Jun-18 10:00N 40°53' E 024°27'510.4
2018-Jun-18 09:30N 40°49' E 024°31'5 9.3
2018-Jun-18 09:00N 40°46' E 024°35'0 0.0
2018-Jun-18 08:30N 40°46' E 024°35'0 0.0
2018-Jun-18 08:00N 40°46' E 024°35'1 2.6
2018-Jun-18 07:30N 40°47' E 024°34'5 9.9
2018-Jun-18 07:00N 40°50' E 024°30'510.2
2018-Jun-18 06:30N 40°54' E 024°25'2 3.2
2018-Jun-18 06:00N 40°56' E 024°25'1 1.5
2018-Jun-18 05:30N 40°55' E 024°24'510.0
2018-Jun-18 05:00N 40°51' E 024°29'510.4
2018-Jun-18 04:30N 40°47' E 024°33'2 4.3
2018-Jun-18 04:00N 40°46' E 024°35'1 0.1
2018-Jun-17 17:17N 40°46' E 024°34'310.2
2018-Jun-17 17:00N 40°48' E 024°32'510.2
2018-Jun-17 16:30N 40°52' E 024°28'4 8.6
2018-Jun-17 16:00N 40°56' E 024°25'1 1.9
2018-Jun-17 15:30N 40°55' E 024°25'510.1
2018-Jun-17 15:00N 40°51' E 024°29'510.4
2018-Jun-17 14:30N 40°47' E 024°33'2 3.8
2018-Jun-17 14:00N 40°46' E 024°35'1 2.2
2018-Jun-17 13:30N 40°47' E 024°34'510.0
2018-Jun-17 13:00N 40°51' E 024°30'510.3
2018-Jun-17 12:30N 40°54' E 024°26'2 3.3
2018-Jun-17 12:00N 40°56' E 024°25'3 5.9
2018-Jun-17 11:30N 40°53' E 024°26'510.3
2018-Jun-17 11:00N 40°49' E 024°31'5 9.6
2018-Jun-17 10:30N 40°46' E 024°35'1 2.8
2018-Jun-17 10:00N 40°47' E 024°34'5 9.8
2018-Jun-17 09:30N 40°51' E 024°30'510.2
2018-Jun-17 09:00N 40°55' E 024°26'2 3.1
2018-Jun-17 08:30N 40°56' E 024°25'3 6.9
2018-Jun-17 08:00N 40°53' E 024°27'510.2
2018-Jun-17 07:30N 40°49' E 024°31'4 8.7
2018-Jun-17 07:00N 40°46' E 024°35'0 0.0
2018-Jun-16 16:08N 40°46' E 024°35'1 4.5
2018-Jun-16 16:00N 40°46' E 024°34'510.6
2018-Jun-16 15:30N 40°50' E 024°30'510.7
2018-Jun-16 15:00N 40°54' E 024°26'2 3.3
2018-Jun-16 14:30N 40°56' E 024°25'3 6.6
2018-Jun-16 14:00N 40°53' E 024°27'510.1
2018-Jun-16 13:30N 40°49' E 024°31'5 9.0
2018-Jun-16 13:00N 40°46' E 024°35'0 0.0
2018-Jun-16 12:30N 40°46' E 024°35'4 7.5
2018-Jun-16 12:00N 40°49' E 024°32'510.1
2018-Jun-16 11:30N 40°53' E 024°28'4 8.2
2018-Jun-16 11:00N 40°56' E 024°25'0 0.0
2018-Jun-16 10:30N 40°56' E 024°25'3 6.4
2018-Jun-16 10:00N 40°53' E 024°27'510.1
2018-Jun-16 09:30N 40°49' E 024°31'5 9.3
2018-Jun-16 09:00N 40°46' E 024°35'0 0.0
2018-Jun-16 08:30N 40°46' E 024°35'0 0.0
2018-Jun-16 08:00N 40°46' E 024°35'1 2.4
2018-Jun-16 07:30N 40°47' E 024°34'510.0
2018-Jun-16 07:00N 40°51' E 024°30'510.4
2018-Jun-16 06:30N 40°55' E 024°25'2 3.1
2018-Jun-16 06:00N 40°56' E 024°25'1 1.3
2018-Jun-16 05:30N 40°55' E 024°24'510.1
2018-Jun-16 05:00N 40°51' E 024°28'510.6
2018-Jun-16 04:30N 40°47' E 024°33'2 4.4
2018-Jun-16 04:00N 40°46' E 024°35'0 0.0
2018-Jun-15 16:07N 40°46' E 024°35'1 9.7
2018-Jun-15 16:01N 40°47' E 024°34'5 9.9
2018-Jun-15 15:31N 40°51' E 024°30'  

Dump ship's entire track history